sensor_id;sensor_type;location;lat;lon;timestamp;pressure;altitude;pressure_sealevel;temperature;humidity
44198;BME280;30157;55.512;37.764;2023-12-20T00:00:41;98240.00;;;1.66;100.00
44198;BME280;30157;55.512;37.764;2023-12-20T00:03:06;98192.94;;;1.41;100.00
44198;BME280;30157;55.512;37.764;2023-12-20T00:05:32;98247.66;;;1.70;100.00
44198;BME280;30157;55.512;37.764;2023-12-20T00:07:59;98252.78;;;1.66;100.00
44198;BME280;30157;55.512;37.764;2023-12-20T00:10:24;98231.41;;;1.60;100.00
44198;BME280;30157;55.512;37.764;2023-12-20T00:12:50;98226.31;;;1.58;100.00
44198;BME280;30157;55.512;37.764;2023-12-20T00:15:16;98250.22;;;1.66;100.00
44198;BME280;30157;55.512;37.764;2023-12-20T00:17:41;98231.41;;;1.57;100.00
44198;BME280;30157;55.512;37.764;2023-12-20T00:20:07;98182.66;;;1.27;100.00
44198;BME280;30157;55.512;37.764;2023-12-20T00:22:33;98179.28;;;1.31;100.00
44198;BME280;30157;55.512;37.764;2023-12-20T00:24:59;98246.88;;;1.75;100.00
44198;BME280;30157;55.512;37.764;2023-12-20T00:27:25;98246.00;;;1.73;100.00
44198;BME280;30157;55.512;37.764;2023-12-20T00:29:50;98257.97;;;1.80;100.00
44198;BME280;30157;55.512;37.764;2023-12-20T00:32:16;98242.59;;;1.73;100.00
44198;BME280;30157;55.512;37.764;2023-12-20T00:34:43;98253.72;;;1.78;100.00
44198;BME280;30157;55.512;37.764;2023-12-20T00:37:08;98204.06;;;1.46;100.00
44198;BME280;30157;55.512;37.764;2023-12-20T00:39:34;98204.94;;;1.51;100.00
44198;BME280;30157;55.512;37.764;2023-12-20T00:42:00;98261.38;;;1.81;100.00
44198;BME280;30157;55.512;37.764;2023-12-20T00:44:26;98192.94;;;1.38;100.00
44198;BME280;30157;55.512;37.764;2023-12-20T00:46:51;98255.38;;;1.76;100.00
44198;BME280;30157;55.512;37.764;2023-12-20T00:49:17;98211.78;;;1.54;100.00
44198;BME280;30157;55.512;37.764;2023-12-20T00:51:43;98263.97;;;1.85;100.00
44198;BME280;30157;55.512;37.764;2023-12-20T00:54:09;98234.81;;;1.59;100.00
44198;BME280;30157;55.512;37.764;2023-12-20T00:56:35;98251.16;;;1.81;100.00
44198;BME280;30157;55.512;37.764;2023-12-20T00:59:01;98240.88;;;1.70;100.00
44198;BME280;30157;55.512;37.764;2023-12-20T01:01:27;98222.88;;;1.55;100.00
44198;BME280;30157;55.512;37.764;2023-12-20T01:03:52;98246.88;;;1.81;100.00
44198;BME280;30157;55.512;37.764;2023-12-20T01:06:18;98258.00;;;1.83;100.00
44198;BME280;30157;55.512;37.764;2023-12-20T01:08:45;98232.38;;;1.79;100.00
44198;BME280;30157;55.512;37.764;2023-12-20T01:11:10;98250.38;;;1.91;100.00
44198;BME280;30157;55.512;37.764;2023-12-20T01:13:36;98206.72;;;1.60;100.00
44198;BME280;30157;55.512;37.764;2023-12-20T01:16:02;98236.63;;;1.74;100.00
44198;BME280;30157;55.512;37.764;2023-12-20T01:18:28;98227.19;;;1.66;100.00
44198;BME280;30157;55.512;37.764;2023-12-20T01:20:54;98232.34;;;1.71;100.00
44198;BME280;30157;55.512;37.764;2023-12-20T01:23:19;98216.97;;;1.62;100.00
44198;BME280;30157;55.512;37.764;2023-12-20T01:25:45;98203.28;;;1.55;100.00
44198;BME280;30157;55.512;37.764;2023-12-20T01:28:11;98162.19;;;1.26;100.00
44198;BME280;30157;55.512;37.764;2023-12-20T01:30:37;98142.53;;;1.15;100.00
44198;BME280;30157;55.512;37.764;2023-12-20T01:33:03;98206.69;;;1.54;100.00
44198;BME280;30157;55.512;37.764;2023-12-20T01:35:29;98215.22;;;1.59;100.00
44198;BME280;30157;55.512;37.764;2023-12-20T01:37:54;98198.09;;;1.43;100.00
44198;BME280;30157;55.512;37.764;2023-12-20T01:40:23;98222.88;;;1.56;100.00
44198;BME280;30157;55.512;37.764;2023-12-20T01:43:21;98222.91;;;1.58;100.00
44198;BME280;30157;55.512;37.764;2023-12-20T01:45:47;98190.38;;;1.35;100.00
44198;BME280;30157;55.512;37.764;2023-12-20T01:48:14;98239.09;;;1.61;100.00
44198;BME280;30157;55.512;37.764;2023-12-20T01:50:42;98210.06;;;1.48;100.00
44198;BME280;30157;55.512;37.764;2023-12-20T01:53:10;98198.09;;;1.44;100.00
44198;BME280;30157;55.512;37.764;2023-12-20T01:55:40;98158.81;;;1.27;100.00
44198;BME280;30157;55.512;37.764;2023-12-20T01:58:07;98142.53;;;1.15;100.00
44198;BME280;30157;55.512;37.764;2023-12-20T02:00:34;98219.47;;;1.56;100.00
44198;BME280;30157;55.512;37.764;2023-12-20T02:03:01;98189.56;;;1.42;100.00
44198;BME280;30157;55.512;37.764;2023-12-20T02:05:33;98220.31;;;1.53;100.00
44198;BME280;30157;55.512;37.764;2023-12-20T02:07:59;98190.44;;;1.43;100.00
44198;BME280;30157;55.512;37.764;2023-12-20T02:10:26;98202.44;;;1.58;100.00
44198;BME280;30157;55.512;37.764;2023-12-20T02:12:52;98199.81;;;1.47;100.00
44198;BME280;30157;55.512;37.764;2023-12-20T02:15:18;98209.25;;;1.57;100.00
44198;BME280;30157;55.512;37.764;2023-12-20T02:17:45;98204.09;;;1.49;100.00
44198;BME280;30157;55.512;37.764;2023-12-20T02:20:12;98194.69;;;1.45;100.00
44198;BME280;30157;55.512;37.764;2023-12-20T02:22:38;98207.56;;;1.61;100.00
44198;BME280;30157;55.512;37.764;2023-12-20T02:25:04;98196.47;;;1.57;100.00
44198;BME280;30157;55.512;37.764;2023-12-20T02:27:30;98145.16;;;1.25;100.00
44198;BME280;30157;55.512;37.764;2023-12-20T02:29:56;98154.53;;;1.30;100.00
44198;BME280;30157;55.512;37.764;2023-12-20T02:32:24;98198.13;;;1.49;100.00
44198;BME280;30157;55.512;37.764;2023-12-20T02:34:52;98195.56;;;1.50;100.00
44198;BME280;30157;55.512;37.764;2023-12-20T02:37:17;98173.38;;;1.46;100.00
44198;BME280;30157;55.512;37.764;2023-12-20T02:39:43;98141.75;;;1.24;100.00
44198;BME280;30157;55.512;37.764;2023-12-20T02:42:09;98140.84;;;1.17;100.00
44198;BME280;30157;55.512;37.764;2023-12-20T02:44:34;98175.03;;;1.32;100.00
44198;BME280;30157;55.512;37.764;2023-12-20T02:47:02;98184.38;;;1.34;100.00
44198;BME280;30157;55.512;37.764;2023-12-20T02:49:28;98156.19;;;1.21;100.00
44198;BME280;30157;55.512;37.764;2023-12-20T02:51:53;98169.88;;;1.29;100.00
44198;BME280;30157;55.512;37.764;2023-12-20T02:54:19;98192.16;;;1.50;100.00
44198;BME280;30157;55.512;37.764;2023-12-20T02:56:45;98189.59;;;1.48;100.00
44198;BME280;30157;55.512;37.764;2023-12-20T02:59:11;98184.44;;;1.41;100.00
44198;BME280;30157;55.512;37.764;2023-12-20T03:01:42;98185.31;;;1.43;100.00
44198;BME280;30157;55.512;37.764;2023-12-20T03:04:08;98180.22;;;1.49;100.00
44198;BME280;30157;55.512;37.764;2023-12-20T03:06:34;98187.94;;;1.57;100.00
44198;BME280;30157;55.512;37.764;2023-12-20T03:09:00;98176.03;;;1.60;100.00
44198;BME280;30157;55.512;37.764;2023-12-20T03:11:28;98189.69;;;1.65;100.00
44198;BME280;30157;55.512;37.764;2023-12-20T03:13:55;98193.06;;;1.55;100.00
44198;BME280;30157;55.512;37.764;2023-12-20T03:16:21;98194.72;;;1.55;100.00
44198;BME280;30157;55.512;37.764;2023-12-20T03:18:46;98193.94;;;1.62;100.00
44198;BME280;30157;55.512;37.764;2023-12-20T03:21:12;98101.63;;;1.12;100.00
44198;BME280;30157;55.512;37.764;2023-12-20T03:23:38;98167.47;;;1.58;100.00
44198;BME280;30157;55.512;37.764;2023-12-20T03:26:07;98180.28;;;1.63;100.00
44198;BME280;30157;55.512;37.764;2023-12-20T03:28:33;98112.78;;;1.25;100.00
44198;BME280;30157;55.512;37.764;2023-12-20T03:30:59;98178.56;;;1.59;100.00
44198;BME280;30157;55.512;37.764;2023-12-20T03:33:25;98139.25;;;1.33;100.00
44198;BME280;30157;55.512;37.764;2023-12-20T03:35:51;98118.69;;;1.18;100.00
44198;BME280;30157;55.512;37.764;2023-12-20T03:38:16;98181.94;;;1.55;100.00
44198;BME280;30157;55.512;37.764;2023-12-20T03:40:42;98176.00;;;1.57;100.00
44198;BME280;30157;55.512;37.764;2023-12-20T03:43:08;98172.59;;;1.58;100.00
44198;BME280;30157;55.512;37.764;2023-12-20T03:45:34;98163.16;;;1.45;100.00
44198;BME280;30157;55.512;37.764;2023-12-20T03:47:59;98171.75;;;1.59;100.00
44198;BME280;30157;55.512;37.764;2023-12-20T03:50:26;98188.81;;;1.60;100.00
44198;BME280;30157;55.512;37.764;2023-12-20T03:52:52;98191.34;;;1.57;100.00
44198;BME280;30157;55.512;37.764;2023-12-20T03:55:18;98185.38;;;1.54;100.00
44198;BME280;30157;55.512;37.764;2023-12-20T03:57:44;98200.72;;;1.60;100.00
44198;BME280;30157;55.512;37.764;2023-12-20T04:00:10;98187.94;;;1.61;100.00
44198;BME280;30157;55.512;37.764;2023-12-20T04:02:40;98139.25;;;1.32;100.00
44198;BME280;30157;55.512;37.764;2023-12-20T04:05:07;98167.38;;;1.38;100.00
44198;BME280;30157;55.512;37.764;2023-12-20T04:07:33;98202.44;;;1.58;100.00
44198;BME280;30157;55.512;37.764;2023-12-20T04:09:59;98197.34;;;1.58;100.00
44198;BME280;30157;55.512;37.764;2023-12-20T04:12:27;98139.16;;;1.21;100.00
44198;BME280;30157;55.512;37.764;2023-12-20T04:14:52;98145.16;;;1.25;100.00
44198;BME280;30157;55.512;37.764;2023-12-20T04:17:18;98138.31;;;1.22;100.00
44198;BME280;30157;55.512;37.764;2023-12-20T04:19:44;98149.41;;;1.23;100.00
44198;BME280;30157;55.512;37.764;2023-12-20T04:22:10;98187.88;;;1.49;100.00
44198;BME280;30157;55.512;37.764;2023-12-20T04:24:35;98155.44;;;1.34;100.00
44198;BME280;30157;55.512;37.764;2023-12-20T04:27:01;98197.34;;;1.59;100.00
44198;BME280;30157;55.512;37.764;2023-12-20T04:29:28;98150.31;;;1.34;100.00
44198;BME280;30157;55.512;37.764;2023-12-20T04:31:53;98213.53;;;1.61;100.00
44198;BME280;30157;55.512;37.764;2023-12-20T04:34:20;98221.25;;;1.67;100.00
44198;BME280;30157;55.512;37.764;2023-12-20T04:36:46;98194.72;;;1.50;100.00
44198;BME280;30157;55.512;37.764;2023-12-20T04:39:13;98170.81;;;1.42;100.00
44198;BME280;30157;55.512;37.764;2023-12-20T04:41:39;98150.31;;;1.29;100.00
44198;BME280;30157;55.512;37.764;2023-12-20T04:44:05;98209.28;;;1.62;100.00
44198;BME280;30157;55.512;37.764;2023-12-20T04:46:31;98211.84;;;1.63;100.00
44198;BME280;30157;55.512;37.764;2023-12-20T04:48:57;98216.09;;;1.63;100.00
44198;BME280;30157;55.512;37.764;2023-12-20T04:51:23;98215.25;;;1.62;100.00
44198;BME280;30157;55.512;37.764;2023-12-20T04:53:49;98210.13;;;1.62;100.00
44198;BME280;30157;55.512;37.764;2023-12-20T04:56:14;98226.38;;;1.71;100.00
44198;BME280;30157;55.512;37.764;2023-12-20T04:58:40;98205.00;;;1.59;100.00
44198;BME280;30157;55.512;37.764;2023-12-20T05:01:06;98175.06;;;1.41;100.00
44198;BME280;30157;55.512;37.764;2023-12-20T05:03:32;98185.34;;;1.50;100.00
44198;BME280;30157;55.512;37.764;2023-12-20T05:05:58;98189.63;;;1.56;100.00
44198;BME280;30157;55.512;37.764;2023-12-20T05:08:24;98195.63;;;1.57;100.00
44198;BME280;30157;55.512;37.764;2023-12-20T05:10:54;98116.06;;;1.03;100.00
44198;BME280;30157;55.512;37.764;2023-12-20T05:13:20;98233.19;;;1.72;100.00
44198;BME280;30157;55.512;37.764;2023-12-20T05:15:46;98206.72;;;1.63;100.00
44198;BME280;30157;55.512;37.764;2023-12-20T05:18:12;98157.94;;;1.26;100.00
44198;BME280;30157;55.512;37.764;2023-12-20T05:20:39;98232.34;;;1.71;100.00
44198;BME280;30157;55.512;37.764;2023-12-20T05:23:04;98233.19;;;1.67;100.00
44198;BME280;30157;55.512;37.764;2023-12-20T05:25:31;98187.00;;;1.41;100.00
44198;BME280;30157;55.512;37.764;2023-12-20T05:27:57;98246.81;;;1.69;100.00
44198;BME280;30157;55.512;37.764;2023-12-20T05:30:22;98241.66;;;1.58;100.00
44198;BME280;30157;55.512;37.764;2023-12-20T05:32:48;98244.25;;;1.64;100.00
44198;BME280;30157;55.512;37.764;2023-12-20T05:35:14;98199.72;;;1.34;100.00
44198;BME280;30157;55.512;37.764;2023-12-20T05:37:41;98247.66;;;1.60;100.00
44198;BME280;30157;55.512;37.764;2023-12-20T05:40:07;98257.88;;;1.62;100.00
44198;BME280;30157;55.512;37.764;2023-12-20T05:42:37;98224.47;;;1.37;100.00
44198;BME280;30157;55.512;37.764;2023-12-20T05:45:04;98249.25;;;1.47;100.00
44198;BME280;30157;55.512;37.764;2023-12-20T05:47:31;98193.63;;;1.11;100.00
44198;BME280;30157;55.512;37.764;2023-12-20T05:49:58;98259.41;;;1.40;100.00
44198;BME280;30157;55.512;37.764;2023-12-20T05:52:24;98114.00;;;0.55;100.00
44198;BME280;30157;55.512;37.764;2023-12-20T05:54:50;98252.66;;;1.45;100.00
44198;BME280;30157;55.512;37.764;2023-12-20T05:57:16;98228.75;;;1.41;100.00
44198;BME280;30157;55.512;37.764;2023-12-20T05:59:41;98225.34;;;1.42;100.00
44198;BME280;30157;55.512;37.764;2023-12-20T06:02:07;98232.19;;;1.43;100.00
44198;BME280;30157;55.512;37.764;2023-12-20T06:04:33;98237.31;;;1.46;100.00
44198;BME280;30157;55.512;37.764;2023-12-20T06:06:59;98247.59;;;1.56;100.00
44198;BME280;30157;55.512;37.764;2023-12-20T06:09:27;98197.16;;;1.27;100.00
44198;BME280;30157;55.512;37.764;2023-12-20T06:11:52;98250.16;;;1.56;100.00
44198;BME280;30157;55.512;37.764;2023-12-20T06:14:18;98229.63;;;1.48;100.00
44198;BME280;30157;55.512;37.764;2023-12-20T06:16:45;98251.88;;;1.58;100.00
44198;BME280;30157;55.512;37.764;2023-12-20T06:19:11;98247.59;;;1.56;100.00
44198;BME280;30157;55.512;37.764;2023-12-20T06:21:37;98183.47;;;1.20;100.00
44198;BME280;30157;55.512;37.764;2023-12-20T06:24:03;98209.09;;;1.32;100.00
44198;BME280;30157;55.512;37.764;2023-12-20T06:26:29;98258.72;;;1.62;100.00
44198;BME280;30157;55.512;37.764;2023-12-20T06:28:55;98224.50;;;1.40;100.00
44198;BME280;30157;55.512;37.764;2023-12-20T06:31:21;98260.44;;;1.63;100.00
44198;BME280;30157;55.512;37.764;2023-12-20T06:33:46;98259.59;;;1.67;100.00
44198;BME280;30157;55.512;37.764;2023-12-20T06:36:13;98205.72;;;1.38;100.00
44198;BME280;30157;55.512;37.764;2023-12-20T06:38:39;98242.50;;;1.59;100.00
44198;BME280;30157;55.512;37.764;2023-12-20T06:41:05;98257.94;;;1.71;100.00
44198;BME280;30157;55.512;37.764;2023-12-20T06:43:31;98248.53;;;1.67;100.00
44198;BME280;30157;55.512;37.764;2023-12-20T06:46:00;98255.38;;;1.73;100.00
44198;BME280;30157;55.512;37.764;2023-12-20T06:48:26;98238.31;;;1.67;100.00
44198;BME280;30157;55.512;37.764;2023-12-20T06:50:52;98236.59;;;1.72;100.00
44198;BME280;30157;55.512;37.764;2023-12-20T06:53:18;98195.56;;;1.49;100.00
44198;BME280;30157;55.512;37.764;2023-12-20T06:55:44;98246.00;;;1.73;100.00
44198;BME280;30157;55.512;37.764;2023-12-20T06:58:09;98188.75;;;1.49;100.00
44198;BME280;30157;55.512;37.764;2023-12-20T07:00:35;98241.81;;;1.86;100.00
44198;BME280;30157;55.512;37.764;2023-12-20T07:03:01;98252.94;;;2.00;100.00
44198;BME280;30157;55.512;37.764;2023-12-20T07:05:27;98151.19;;;1.41;100.00
44198;BME280;30157;55.512;37.764;2023-12-20T07:07:53;98273.47;;;2.07;100.00
44198;BME280;30157;55.512;37.764;2023-12-20T07:10:19;98277.75;;;2.09;100.00
44198;BME280;30157;55.512;37.764;2023-12-20T07:12:46;98282.03;;;2.15;100.00
44198;BME280;30157;55.512;37.764;2023-12-20T07:15:14;98229.03;;;1.86;100.00
44198;BME280;30157;55.512;37.764;2023-12-20T07:17:39;98246.13;;;1.99;100.00
44198;BME280;30157;55.512;37.764;2023-12-20T07:20:06;98236.75;;;2.00;100.00
44198;BME280;30157;55.512;37.764;2023-12-20T07:22:35;98253.88;;;2.13;100.00
44198;BME280;30157;55.512;37.764;2023-12-20T07:25:01;98264.09;;;2.18;100.00
44198;BME280;30157;55.512;37.764;2023-12-20T07:27:26;98276.09;;;2.27;100.00
44198;BME280;30157;55.512;37.764;2023-12-20T07:29:52;98261.59;;;2.21;100.00
44198;BME280;30157;55.512;37.764;2023-12-20T07:32:18;98258.97;;;2.15;100.00
44198;BME280;30157;55.512;37.764;2023-12-20T07:34:44;98256.44;;;2.15;100.00
44198;BME280;30157;55.512;37.764;2023-12-20T07:37:10;98282.91;;;2.20;100.00
44198;BME280;30157;55.512;37.764;2023-12-20T07:39:39;98285.44;;;2.14;100.00
44198;BME280;30157;55.512;37.764;2023-12-20T07:42:06;98299.09;;;2.16;100.00
44198;BME280;30157;55.512;37.764;2023-12-20T07:44:32;98233.25;;;1.85;100.00
44198;BME280;30157;55.512;37.764;2023-12-20T07:46:58;98307.66;;;2.27;100.00
44198;BME280;30157;55.512;37.764;2023-12-20T07:49:23;98290.59;;;2.23;100.00
44198;BME280;30157;55.512;37.764;2023-12-20T07:51:49;98304.31;;;2.33;100.00
44198;BME280;30157;55.512;37.764;2023-12-20T07:54:15;98288.94;;;2.34;100.00
44198;BME280;30157;55.512;37.764;2023-12-20T07:56:41;98230.75;;;1.93;100.00
44198;BME280;30157;55.512;37.764;2023-12-20T07:59:07;98302.59;;;2.32;100.00
44198;BME280;30157;55.512;37.764;2023-12-20T08:01:33;98278.66;;;2.30;100.00
44198;BME280;30157;55.512;37.764;2023-12-20T08:03:59;98289.75;;;2.29;100.00
44198;BME280;30157;55.512;37.764;2023-12-20T08:06:25;98293.19;;;2.31;100.00
44198;BME280;30157;55.512;37.764;2023-12-20T08:08:50;98256.38;;;1.99;100.00
44198;BME280;30157;55.512;37.764;2023-12-20T08:11:16;98097.31;;;0.99;100.00
44198;BME280;30157;55.512;37.764;2023-12-20T08:13:43;98254.69;;;2.08;100.00
44198;BME280;30157;55.512;37.764;2023-12-20T08:16:08;98252.94;;;1.96;100.00
44198;BME280;30157;55.512;37.764;2023-12-20T08:18:34;98266.66;;;2.09;100.00
44198;BME280;30157;55.512;37.764;2023-12-20T08:21:00;98296.59;;;2.27;100.00
44198;BME280;30157;55.512;37.764;2023-12-20T08:23:27;98282.91;;;2.17;100.00
44198;BME280;30157;55.512;37.764;2023-12-20T08:25:53;98234.97;;;1.87;100.00
44198;BME280;30157;55.512;37.764;2023-12-20T08:28:18;98271.78;;;2.10;100.00
44198;BME280;30157;55.512;37.764;2023-12-20T08:30:44;98271.78;;;2.12;100.00
44198;BME280;30157;55.512;37.764;2023-12-20T08:33:10;98208.47;;;1.71;100.00
44198;BME280;30157;55.512;37.764;2023-12-20T08:35:39;98268.34;;;2.07;100.00
44198;BME280;30157;55.512;37.764;2023-12-20T08:38:05;98285.47;;;2.18;100.00
44198;BME280;30157;55.512;37.764;2023-12-20T08:40:31;98276.94;;;2.23;100.00
44198;BME280;30157;55.512;37.764;2023-12-20T08:42:57;98248.75;;;2.09;100.00
44198;BME280;30157;55.512;37.764;2023-12-20T08:45:23;98280.34;;;2.18;100.00
44198;BME280;30157;55.512;37.764;2023-12-20T08:47:48;98272.66;;;2.18;100.00
44198;BME280;30157;55.512;37.764;2023-12-20T08:50:14;98284.63;;;2.21;100.00
44198;BME280;30157;55.512;37.764;2023-12-20T08:52:40;98285.41;;;2.12;100.00
44198;BME280;30157;55.512;37.764;2023-12-20T08:55:06;98288.03;;;2.17;100.00
44198;BME280;30157;55.512;37.764;2023-12-20T08:57:32;98305.91;;;2.14;100.00
44198;BME280;30157;55.512;37.764;2023-12-20T08:59:59;98275.13;;;2.05;100.00
44198;BME280;30157;55.512;37.764;2023-12-20T09:02:25;98228.13;;;1.81;100.00
44198;BME280;30157;55.512;37.764;2023-12-20T09:04:50;98288.03;;;2.18;100.00
44198;BME280;30157;55.512;37.764;2023-12-20T09:07:23;98234.97;;;1.83;100.00
44198;BME280;30157;55.512;37.764;2023-12-20T09:09:49;98270.94;;;2.14;100.00
44198;BME280;30157;55.512;37.764;2023-12-20T09:12:17;98211.91;;;1.77;100.00
44198;BME280;30157;55.512;37.764;2023-12-20T09:14:44;98181.09;;;1.57;100.00
44198;BME280;30157;55.512;37.764;2023-12-20T09:17:10;98283.75;;;2.21;100.00
44198;BME280;30157;55.512;37.764;2023-12-20T09:19:37;98282.88;;;2.14;100.00
44198;BME280;30157;55.512;37.764;2023-12-20T09:22:05;98233.25;;;1.81;100.00
44198;BME280;30157;55.512;37.764;2023-12-20T09:24:31;98288.84;;;2.16;100.00
44198;BME280;30157;55.512;37.764;2023-12-20T09:26:57;98280.28;;;2.08;100.00
44198;BME280;30157;55.512;37.764;2023-12-20T09:29:23;98284.56;;;2.12;100.00
44198;BME280;30157;55.512;37.764;2023-12-20T09:31:50;98217.03;;;1.76;100.00
44198;BME280;30157;55.512;37.764;2023-12-20T09:34:16;98258.09;;;2.04;100.00
44198;BME280;30157;55.512;37.764;2023-12-20T09:36:44;98275.19;;;2.11;100.00
44198;BME280;30157;55.512;37.764;2023-12-20T09:39:17;98234.13;;;1.86;100.00
44198;BME280;30157;55.512;37.764;2023-12-20T09:41:57;98159.69;;;1.32;100.00
44198;BME280;30157;55.512;37.764;2023-12-20T09:44:25;98286.34;;;2.24;100.00
44198;BME280;30157;55.512;37.764;2023-12-20T09:46:52;98145.25;;;1.42;100.00
44198;BME280;30157;55.512;37.764;2023-12-20T09:49:20;98290.63;;;2.26;100.00
44198;BME280;30157;55.512;37.764;2023-12-20T09:51:47;98211.09;;;1.88;100.00
44198;BME280;30157;55.512;37.764;2023-12-20T09:54:17;98245.31;;;2.07;100.00
44198;BME280;30157;55.512;37.764;2023-12-20T09:56:47;98134.16;;;1.37;100.00
44198;BME280;30157;55.512;37.764;2023-12-20T09:59:13;98261.59;;;2.20;100.00
44198;BME280;30157;55.512;37.764;2023-12-20T10:01:40;98262.44;;;2.20;100.00
44198;BME280;30157;55.512;37.764;2023-12-20T10:04:08;98277.78;;;2.18;100.00
44198;BME280;30157;55.512;37.764;2023-12-20T10:06:36;98224.75;;;1.90;100.00
44198;BME280;30157;55.512;37.764;2023-12-20T10:09:04;98280.34;;;2.17;100.00
44198;BME280;30157;55.512;37.764;2023-12-20T10:11:31;98242.69;;;1.93;100.00
44198;BME280;30157;55.512;37.764;2023-12-20T10:14:00;98264.94;;;2.09;100.00
44198;BME280;30157;55.512;37.764;2023-12-20T10:16:29;98220.47;;;1.79;100.00
44198;BME280;30157;55.512;37.764;2023-12-20T10:18:56;98272.63;;;2.12;100.00
44198;BME280;30157;55.512;37.764;2023-12-20T10:21:22;98222.97;;;1.75;100.00
44198;BME280;30157;55.512;37.764;2023-12-20T10:23:48;98284.56;;;2.09;100.00
44198;BME280;30157;55.512;37.764;2023-12-20T10:26:21;98267.47;;;2.00;100.00
44198;BME280;30157;55.512;37.764;2023-12-20T10:28:51;98274.28;;;2.01;100.00
44198;BME280;30157;55.512;37.764;2023-12-20T10:31:31;98274.25;;;1.96;100.00
44198;BME280;30157;55.512;37.764;2023-12-20T10:33:58;98282.81;;;2.05;100.00
44198;BME280;30157;55.512;37.764;2023-12-20T10:36:34;98223.78;;;1.64;100.00
44198;BME280;30157;55.512;37.764;2023-12-20T10:39:01;98281.09;;;1.97;100.00
44198;BME280;30157;55.512;37.764;2023-12-20T10:41:32;98258.00;;;1.87;100.00
44198;BME280;30157;55.512;37.764;2023-12-20T10:44:02;98275.97;;;1.97;100.00
44198;BME280;30157;55.512;37.764;2023-12-20T10:46:29;98174.16;;;1.33;100.00
44198;BME280;30157;55.512;37.764;2023-12-20T10:49:01;98228.03;;;1.65;100.00
44198;BME280;30157;55.512;37.764;2023-12-20T10:51:38;98178.44;;;1.34;100.00
44198;BME280;30157;55.512;37.764;2023-12-20T10:54:04;98281.91;;;1.90;100.00
44198;BME280;30157;55.512;37.764;2023-12-20T10:56:32;98282.75;;;1.91;100.00
44198;BME280;30157;55.512;37.764;2023-12-20T10:59:02;98228.88;;;1.58;100.00
44198;BME280;30157;55.512;37.764;2023-12-20T11:01:30;98281.91;;;1.90;100.00
44198;BME280;30157;55.512;37.764;2023-12-20T11:03:56;98283.63;;;1.91;100.00
44198;BME280;30157;55.512;37.764;2023-12-20T11:06:43;98266.50;;;1.84;100.00
44198;BME280;30157;55.512;37.764;2023-12-20T11:09:17;98269.97;;;1.89;100.00
44198;BME280;30157;55.512;37.764;2023-12-20T11:14:27;98225.47;;;1.64;100.00
44198;BME280;30157;55.512;37.764;2023-12-20T11:17:09;98290.47;;;1.95;100.00
44198;BME280;30157;55.512;37.764;2023-12-20T11:22:20;98276.75;;;1.82;100.00
44198;BME280;30157;55.512;37.764;2023-12-20T11:24:47;98283.56;;;1.82;100.00
44198;BME280;30157;55.512;37.764;2023-12-20T11:27:14;98270.72;;;1.74;100.00
44198;BME280;30157;55.512;37.764;2023-12-20T11:29:40;98273.28;;;1.73;100.00
44198;BME280;30157;55.512;37.764;2023-12-20T11:34:55;98280.13;;;1.77;100.00
44198;BME280;30157;55.512;37.764;2023-12-20T11:37:22;98279.28;;;1.78;100.00
44198;BME280;30157;55.512;37.764;2023-12-20T11:40:04;98282.63;;;1.64;100.00
44198;BME280;30157;55.512;37.764;2023-12-20T11:42:38;98299.75;;;1.78;100.00
44198;BME280;30157;55.512;37.764;2023-12-20T11:45:05;98294.63;;;1.78;100.00
44198;BME280;30157;55.512;37.764;2023-12-20T11:47:31;98292.94;;;1.78;100.00
44198;BME280;30157;55.512;37.764;2023-12-20T11:49:58;98280.09;;;1.71;100.00
44198;BME280;30157;55.512;37.764;2023-12-20T11:52:26;98296.31;;;1.76;100.00
44198;BME280;30157;55.512;37.764;2023-12-20T11:54:51;98287.75;;;1.72;100.00
44198;BME280;30157;55.512;37.764;2023-12-20T11:57:17;98234.69;;;1.37;100.00
44198;BME280;30157;55.512;37.764;2023-12-20T11:59:43;98292.03;;;1.68;100.00
44198;BME280;30157;55.512;37.764;2023-12-20T12:02:11;98286.84;;;1.62;100.00
44198;BME280;30157;55.512;37.764;2023-12-20T12:04:37;98294.59;;;1.72;100.00
44198;BME280;30157;55.512;37.764;2023-12-20T12:07:03;98300.53;;;1.71;100.00
44198;BME280;30157;55.512;37.764;2023-12-20T12:09:29;98294.59;;;1.70;100.00
44198;BME280;30157;55.512;37.764;2023-12-20T12:11:55;98233.84;;;1.33;100.00
44198;BME280;30157;55.512;37.764;2023-12-20T12:14:20;98292.81;;;1.61;100.00
44198;BME280;30157;55.512;37.764;2023-12-20T12:16:46;98285.97;;;1.59;100.00
44198;BME280;30157;55.512;37.764;2023-12-20T12:19:25;98248.25;;;1.25;100.00
44198;BME280;30157;55.512;37.764;2023-12-20T12:22:13;98279.09;;;1.47;100.00
44198;BME280;30157;55.512;37.764;2023-12-20T12:24:43;98294.47;;;1.51;100.00
44198;BME280;30157;55.512;37.764;2023-12-20T12:27:11;98201.16;;;0.92;100.00
44198;BME280;30157;55.512;37.764;2023-12-20T12:29:37;98314.97;;;1.61;100.00
44198;BME280;30157;55.512;37.764;2023-12-20T12:32:07;98306.41;;;1.56;100.00
44198;BME280;30157;55.512;37.764;2023-12-20T12:34:34;98317.47;;;1.53;100.00
44198;BME280;30157;55.512;37.764;2023-12-20T12:37:00;98314.94;;;1.56;100.00
44198;BME280;30157;55.512;37.764;2023-12-20T12:39:26;98258.41;;;1.16;100.00
44198;BME280;30157;55.512;37.764;2023-12-20T12:41:53;98274.66;;;1.23;100.00
44198;BME280;30157;55.512;37.764;2023-12-20T12:44:19;98314.03;;;1.48;100.00
44198;BME280;30157;55.512;37.764;2023-12-20T12:46:46;98098.38;;;0.15;100.00
44198;BME280;30157;55.512;37.764;2023-12-20T12:49:12;98260.06;;;1.12;100.00
44198;BME280;30157;55.512;37.764;2023-12-20T12:51:38;98317.38;;;1.36;100.00
44198;BME280;30157;55.512;37.764;2023-12-20T12:54:04;98327.63;;;1.45;100.00
44198;BME280;30157;55.512;37.764;2023-12-20T12:56:29;98330.25;;;1.50;100.00